Time;durP1;ratioP1;P1;durP2;ratioP2;P2;SDS_P1;SDS_P2;PMS_P1;PMS_P2;Temp;Humidity;BMP_temperature;BMP_pressure;BME280_temperature;BME280_humidity;BME280_pressure;Samples;Min_cycle;Max_cycle;Signal;HPM_P1;HPM_P2
2022/08/12 00:43:07;;;;;;;3.40;2.90;;;;;;;21.09;51.31;95518.50;5024991;28;20037;-82
2022/08/12 00:46:29;;;;;;;5.50;2.65;;;;;;;21.16;51.53;95517.53;5008617;28;20021;-82
2022/08/12 00:48:17;;;;;;;3.30;2.88;;;;;;;21.23;51.49;95510.03;5024128;28;20037;-82
2022/08/12 00:50:43;;;;;;;5.03;2.75;;;;;;;21.29;51.58;95517.25;5009195;28;20127;-82
2022/08/12 00:53:08;;;;;;;4.00;2.88;;;;;;;21.36;51.21;95509.75;5008030;28;20033;-83
2022/08/12 00:55:33;;;;;;;5.25;2.95;;;;;;;21.36;50.93;95515.19;5026492;28;20400;-83
2022/08/12 00:57:59;;;;;;;2.95;2.60;;;;;;;21.35;50.75;95513.53;5008179;28;20014;-83
2022/08/12 01:00:24;;;;;;;3.58;2.78;;;;;;;21.35;50.87;95510.81;5008204;28;20037;-83
2022/08/12 01:02:52;;;;;;;3.28;2.65;;;;;;;21.36;51.08;95523.38;5026083;28;20036;-83
2022/08/12 01:13:32;;;;;;;3.45;2.67;;;;;;;21.46;50.75;95511.81;5010638;28;20150;-83
2022/08/12 01:16:00;;;;;;;3.25;2.70;;;;;;;21.50;50.84;95514.91;5026429;28;20038;-83
2022/08/12 01:18:27;;;;;;;3.70;3.08;;;;;;;21.51;50.45;95522.00;5025609;28;20128;-83
2022/08/12 01:20:55;;;;;;;3.20;2.90;;;;;;;21.45;50.99;95525.72;5026442;28;20030;-82
2022/08/12 01:23:47;;;;;;;3.38;2.83;;;;;;;21.43;50.93;95538.75;5024033;28;20262;-83
2022/08/12 01:26:17;;;;;;;5.20;2.85;;;;;;;21.46;50.68;95535.53;5026078;28;20045;-83
2022/08/12 01:28:43;;;;;;;3.33;3.03;;;;;;;21.40;51.16;95531.91;5025704;28;20091;-83
2022/08/12 01:31:09;;;;;;;3.95;3.15;;;;;;;21.39;50.84;95532.16;5023899;28;20033;-83
2022/08/12 01:33:45;;;;;;;3.50;3.00;;;;;;;21.36;51.19;95528.84;5026049;28;20022;-83
2022/08/12 01:36:11;;;;;;;3.53;3.00;;;;;;;21.38;51.28;95525.06;5025505;28;20025;-82
2022/08/12 01:38:36;;;;;;;3.40;3.03;;;;;;;21.43;51.60;95525.13;5024944;28;20029;-82
2022/08/12 01:41:02;;;;;;;3.95;3.30;;;;;;;21.38;51.39;95523.13;5025500;28;20056;-83
2022/08/12 01:43:27;;;;;;;4.80;3.00;;;;;;;21.39;51.88;95522.06;5024652;28;20029;-83
2022/08/12 01:46:02;;;;;;;4.22;3.40;;;;;;;21.37;51.31;95526.94;5008062;28;20524;-83
2022/08/12 01:49:08;;;;;;;6.43;3.55;;;;;;;21.34;51.45;95525.53;5025447;28;20025;-82
2022/08/12 01:51:41;;;;;;;4.47;3.40;;;;;;;21.36;51.50;95525.28;5035449;28;20049;-83
2022/08/12 01:54:14;;;;;;;4.25;3.20;;;;;;;21.37;51.88;95535.13;5025604;28;20036;-82
2022/08/12 01:57:02;;;;;;;3.78;3.08;;;;;;;21.32;52.19;95530.41;5025911;28;20053;-82
2022/08/12 01:59:58;;;;;;;5.53;3.00;;;;;;;21.28;52.03;95521.03;5025857;28;20034;-83
2022/08/12 02:02:26;;;;;;;4.35;3.22;;;;;;;21.29;52.51;95527.31;5029042;28;20512;-82
2022/08/12 02:11:23;;;;;;;4.50;3.50;;;;;;;21.19;52.63;95512.41;5029019;28;20045;-83
2022/08/12 02:14:04;;;;;;;4.25;3.30;;;;;;;21.14;52.58;95517.78;5027644;28;20084;-84
2022/08/12 02:16:48;;;;;;;4.50;3.40;;;;;;;21.19;53.29;95517.03;5029209;28;20064;-83
2022/08/12 02:19:26;;;;;;;3.80;3.25;;;;;;;21.18;53.41;95510.78;5028627;28;20033;-83
2022/08/12 02:22:13;;;;;;;7.07;3.50;;;;;;;21.23;53.28;95507.31;5029748;28;20127;-83
2022/08/12 02:24:39;;;;;;;4.53;3.70;;;;;;;21.26;52.89;95514.19;5028394;28;20043;-83
2022/08/12 02:27:07;;;;;;;4.75;3.70;;;;;;;21.27;53.30;95511.19;5011541;28;20371;-83
2022/08/12 02:29:33;;;;;;;4.88;3.83;;;;;;;21.31;53.38;95512.34;5028591;28;20758;-83
2022/08/12 02:31:58;;;;;;;5.43;3.58;;;;;;;21.34;53.31;95514.63;5027204;28;20030;-83
2022/08/12 02:34:24;;;;;;;5.68;3.58;;;;;;;21.38;52.43;95514.94;5028961;28;20038;-83
2022/08/12 02:36:49;;;;;;;6.38;4.18;;;;;;;21.25;53.02;95518.78;5028287;28;20021;-82
2022/08/12 02:39:15;;;;;;;5.80;3.63;;;;;;;21.23;53.32;95519.03;5011519;28;20030;-83
2022/08/12 02:41:45;;;;;;;6.82;4.20;;;;;;;21.22;53.95;95516.56;5028151;28;20096;-82
2022/08/12 02:44:10;;;;;;;5.47;3.83;;;;;;;21.21;53.85;95514.91;5029078;28;20518;-83
2022/08/12 02:46:36;;;;;;;7.13;4.82;;;;;;;21.14;55.29;95517.78;5010673;28;20032;-83
2022/08/12 02:49:18;;;;;;;8.90;5.45;;;;;;;21.03;56.56;95514.03;5011088;28;20477;-82
2022/08/12 02:51:44;;;;;;;6.35;5.13;;;;;;;21.01;57.60;95515.34;5028762;28;20069;-82
2022/08/12 02:54:09;;;;;;;5.53;4.80;;;;;;;20.82;59.12;95515.47;5028185;28;20408;-82
2022/08/12 02:56:44;;;;;;;5.57;4.60;;;;;;;20.72;59.18;95513.34;5028486;28;20029;-82
2022/08/12 02:59:15;;;;;;;5.82;4.75;;;;;;;20.80;59.99;95515.69;5028297;28;20319;-82
2022/08/12 03:01:52;;;;;;;6.35;4.68;;;;;;;20.91;60.59;95515.94;5027152;28;20076;-83
2022/08/12 03:04:43;;;;;;;6.80;5.18;;;;;;;21.01;61.50;95518.06;5028457;28;20175;-83
2022/08/12 03:07:24;;;;;;;6.03;5.22;;;;;;;21.06;62.38;95516.25;5042898;28;20519;-82
2022/08/12 03:09:52;;;;;;;6.63;5.15;;;;;;;21.07;62.30;95515.19;5028502;28;20061;-82
2022/08/12 03:12:17;;;;;;;6.70;5.32;;;;;;;21.07;62.85;95520.63;5027391;28;20175;-83
2022/08/12 03:14:43;;;;;;;7.05;5.25;;;;;;;21.05;61.80;95528.25;5010521;28;20029;-82
2022/08/12 03:17:28;;;;;;;6.45;5.18;;;;;;;20.95;62.39;95523.41;5027942;28;20436;-82
2022/08/12 03:19:53;;;;;;;6.18;5.40;;;;;;;20.97;62.25;95531.34;5026087;28;20030;-83
2022/08/12 03:22:19;;;;;;;6.53;5.03;;;;;;;20.93;62.43;95524.69;5010600;28;20036;-82
2022/08/12 03:24:45;;;;;;;5.80;5.22;;;;;;;20.82;62.59;95524.47;5027284;28;20025;-82
2022/08/12 03:27:12;;;;;;;7.03;5.20;;;;;;;20.82;62.06;95523.63;5028383;28;20714;-82
2022/08/12 03:29:38;;;;;;;8.93;5.90;;;;;;;20.91;61.76;95524.09;5027348;28;20411;-82
2022/08/12 03:32:04;;;;;;;7.13;5.10;;;;;;;20.73;62.18;95526.72;5027919;28;20887;-83
2022/08/12 03:34:32;;;;;;;9.93;5.25;;;;;;;20.79;61.67;95524.94;5027808;28;20051;-82
2022/08/12 03:36:58;;;;;;;5.15;4.63;;;;;;;20.86;62.16;95527.56;5025866;28;20021;-82
2022/08/12 03:39:36;;;;;;;8.60;6.43;;;;;;;20.85;62.66;95532.16;5010299;28;20110;-82
2022/08/12 03:42:34;;;;;;;8.55;6.22;;;;;;;20.86;62.52;95525.63;5025695;28;20344;-82
2022/08/12 04:01:59;;;;;;;11.85;5.60;;;;;;;20.64;63.25;95528.16;5027714;28;20032;-81
2022/08/12 04:04:27;;;;;;;6.68;5.40;;;;;;;20.67;62.83;95532.31;5027051;28;20549;-81
2022/08/12 04:06:52;;;;;;;8.50;5.60;;;;;;;20.73;63.54;95525.91;5026909;28;20030;-81
2022/08/12 04:09:21;;;;;;;11.93;5.78;;;;;;;20.48;62.52;95527.00;5027225;28;20113;-81
2022/08/12 04:14:31;;;;;;;9.50;5.40;;;;;;;20.57;62.58;95533.72;5027472;28;20095;-81
2022/08/12 04:16:57;;;;;;;7.72;5.20;;;;;;;20.55;62.36;95544.06;5026162;28;20443;-82
2022/08/12 04:19:23;;;;;;;8.27;5.43;;;;;;;20.56;62.98;95547.59;5026961;28;20411;-82
2022/08/12 04:21:49;;;;;;;7.43;4.72;;;;;;;20.54;63.27;95542.38;5026471;28;20029;-82
2022/08/12 04:24:14;;;;;;;9.90;6.22;;;;;;;20.56;63.54;95540.25;5025749;28;20171;-82
2022/08/12 04:26:40;;;;;;;9.20;5.60;;;;;;;20.54;63.83;95542.38;5027051;28;20472;-82
2022/08/12 04:29:05;;;;;;;7.95;6.03;;;;;;;20.43;65.53;95544.06;5026004;28;20075;-81
2022/08/12 04:31:38;;;;;;;9.43;6.43;;;;;;;20.42;64.97;95545.13;5027009;28;20038;-82
2022/08/12 04:34:05;;;;;;;9.02;5.85;;;;;;;20.37;66.31;95547.72;5025656;28;20424;-82
2022/08/12 04:36:30;;;;;;;9.68;7.10;;;;;;;20.38;65.61;95544.75;5026858;28;20516;-81
2022/08/12 04:38:57;;;;;;;6.45;5.28;;;;;;;20.36;66.65;95537.91;5026555;28;20507;-81
2022/08/12 04:41:23;;;;;;;6.85;5.35;;;;;;;20.38;67.07;95539.31;5026106;28;20038;-81
2022/08/12 04:43:49;;;;;;;8.10;5.38;;;;;;;20.29;65.03;95538.03;5026391;28;20056;-82
2022/08/12 04:46:14;;;;;;;9.43;5.80;;;;;;;20.42;64.51;95541.56;5025842;28;20060;-81
2022/08/12 04:48:40;;;;;;;8.95;5.78;;;;;;;20.45;65.48;95541.09;5026842;28;20075;-82
2022/08/12 04:51:06;;;;;;;11.25;5.65;;;;;;;20.44;65.19;95539.44;5025578;28;20031;-82
2022/08/12 04:53:31;;;;;;;6.20;5.57;;;;;;;20.30;65.59;95534.22;5026556;28;20431;-82
2022/08/12 04:55:57;;;;;;;12.18;5.82;;;;;;;19.99;66.17;95534.28;5025642;28;20048;-82
2022/08/12 04:58:22;;;;;;;7.30;5.82;;;;;;;19.94;66.09;95525.97;5026568;28;20033;-82
2022/08/12 05:00:48;;;;;;;9.25;6.07;;;;;;;20.04;65.56;95528.16;5025950;28;20473;-82
2022/08/12 05:03:13;;;;;;;7.82;5.35;;;;;;;20.16;65.62;95527.34;5025733;28;20142;-82
2022/08/12 05:05:39;;;;;;;7.45;6.00;;;;;;;19.96;66.65;95528.47;5026075;28;20036;-83
2022/08/12 05:08:10;;;;;;;9.90;6.00;;;;;;;19.94;67.36;95530.63;5025759;28;20025;-82
2022/08/12 05:10:35;;;;;;;7.35;5.90;;;;;;;20.07;67.42;95535.03;5026436;28;20100;-82
2022/08/12 05:13:01;;;;;;;6.10;5.50;;;;;;;20.05;67.26;95546.16;5025291;28;20084;-81
2022/08/12 05:15:27;;;;;;;8.25;5.53;;;;;;;20.18;66.12;95541.56;5026353;28;20026;-82
2022/08/12 05:17:52;;;;;;;6.45;4.95;;;;;;;20.11;65.53;95537.06;5025753;28;20464;-82
2022/08/12 05:20:21;;;;;;;6.00;5.40;;;;;;;20.06;66.51;95533.38;5025681;28;20029;-82
2022/08/12 05:22:46;;;;;;;7.00;5.50;;;;;;;20.10;66.03;95535.38;5026028;28;20022;-82
2022/08/12 05:25:12;;;;;;;8.15;5.15;;;;;;;20.13;65.72;95539.53;5025367;28;20040;-82
2022/08/12 05:27:41;;;;;;;6.35;4.75;;;;;;;20.12;66.06;95530.53;5025804;28;20018;-82
2022/08/12 05:30:07;;;;;;;6.80;5.30;;;;;;;20.21;65.84;95541.09;5025294;28;20030;-82
2022/08/12 05:32:32;;;;;;;5.20;4.65;;;;;;;20.17;65.15;95531.75;5026035;28;20037;-82
2022/08/12 05:34:58;;;;;;;6.60;5.55;;;;;;;20.24;66.65;95536.00;5028187;28;20025;-83
2022/08/12 05:37:23;;;;;;;8.10;5.30;;;;;;;20.34;67.79;95535.41;5029563;28;20021;-82
2022/08/12 05:39:49;;;;;;;7.68;4.85;;;;;;;20.35;68.02;95537.06;5029569;28;20033;-81
2022/08/12 05:42:14;;;;;;;6.97;4.70;;;;;;;20.34;66.73;95538.16;5029590;28;20037;-82
2022/08/12 05:44:40;;;;;;;5.10;4.60;;;;;;;20.33;65.34;95535.66;5029855;28;21062;-83
2022/08/12 05:47:05;;;;;;;5.82;4.72;;;;;;;20.42;64.93;95545.13;5029427;28;20412;-82
2022/08/12 05:49:33;;;;;;;6.97;4.60;;;;;;;20.45;65.02;95541.09;5030034;28;20581;-82
2022/08/12 05:51:59;;;;;;;5.80;4.88;;;;;;;20.56;65.39;95542.97;5029130;28;20113;-81
2022/08/12 05:54:24;;;;;;;5.85;4.75;;;;;;;20.55;66.09;95540.50;5029608;28;20120;-81
2022/08/12 05:56:50;;;;;;;7.07;5.13;;;;;;;20.64;68.01;95544.50;5028963;28;20024;-82
2022/08/12 05:59:15;;;;;;;9.38;6.10;;;;;;;20.71;67.40;95552.56;5029589;28;20029;-83
2022/08/12 06:01:41;;;;;;;7.35;6.40;;;;;;;20.71;66.63;95552.56;5029251;28;20515;-83
2022/08/12 06:04:08;;;;;;;7.20;6.07;;;;;;;20.71;66.31;95553.41;5029142;28;20480;-81
2022/08/12 06:06:38;;;;;;;7.07;6.38;;;;;;;20.67;66.20;95545.94;5029582;28;20065;-82
2022/08/12 06:09:03;;;;;;;7.70;6.00;;;;;;;20.61;67.92;95542.25;5027469;28;20056;-82
2022/08/12 06:11:29;;;;;;;7.15;5.88;;;;;;;20.61;68.76;95551.28;5029432;28;20104;-82
2022/08/12 06:13:54;;;;;;;7.10;6.38;;;;;;;20.66;68.84;95552.44;5028356;28;20064;-82
2022/08/12 06:16:20;;;;;;;7.88;5.85;;;;;;;20.58;68.43;95551.75;5029583;28;20863;-82
2022/08/12 06:18:47;;;;;;;7.30;5.97;;;;;;;20.58;68.37;95550.91;5030245;28;20021;-82
2022/08/12 06:21:15;;;;;;;7.00;6.13;;;;;;;20.67;67.38;95548.69;5031014;28;20021;-81
2022/08/12 06:23:41;;;;;;;7.03;5.78;;;;;;;20.61;68.67;95545.81;5030143;28;20021;-82
2022/08/12 06:26:10;;;;;;;8.23;6.15;;;;;;;20.67;68.48;95545.94;5028453;28;20481;-82
2022/08/12 06:28:36;;;;;;;6.45;5.55;;;;;;;20.67;65.91;95548.69;5028998;28;20484;-82
2022/08/12 06:31:02;;;;;;;11.52;5.90;;;;;;;20.75;66.89;95540.94;5028237;28;20476;-84
2022/08/12 06:33:28;;;;;;;8.35;6.82;;;;;;;20.90;67.47;95545.06;5029118;28;20140;-82
2022/08/12 06:35:53;;;;;;;8.25;6.15;;;;;;;20.92;65.54;95539.41;5028107;28;20080;-83
2022/08/12 06:38:21;;;;;;;7.97;5.47;;;;;;;20.91;64.30;95548.63;5028832;28;20036;-83
2022/08/12 06:43:36;;;;;;;10.23;6.32;;;;;;;20.98;64.43;95555.63;5028584;28;20064;-83
2022/08/12 06:46:03;;;;;;;10.88;6.40;;;;;;;20.93;64.82;95557.41;5028440;28;20026;-83
2022/08/12 06:48:29;;;;;;;6.72;5.85;;;;;;;20.99;64.36;95551.84;5028165;28;20029;-83
2022/08/12 06:50:55;;;;;;;8.73;6.10;;;;;;;20.93;64.83;95543.78;5028463;28;20412;-83
2022/08/12 06:53:22;;;;;;;9.38;6.00;;;;;;;20.79;64.09;95541.31;5028669;28;20425;-84
2022/08/12 06:55:47;;;;;;;8.05;6.07;;;;;;;20.80;64.48;95542.94;5028126;28;20065;-84
2022/08/12 06:58:13;;;;;;;11.48;6.20;;;;;;;20.96;64.94;95546.84;5028480;28;20466;-84
2022/08/12 07:00:42;;;;;;;9.60;5.97;;;;;;;21.24;62.90;95544.41;5027946;28;20331;-84
2022/08/12 07:03:08;;;;;;;11.13;6.28;;;;;;;21.26;63.96;95534.09;5028615;28;20052;-83
2022/08/12 07:05:33;;;;;;;11.95;8.02;;;;;;;21.35;63.09;95543.56;5027598;28;20463;-84
2022/08/12 07:07:58;;;;;;;13.32;6.82;;;;;;;21.52;63.22;95537.31;5028940;28;20014;-84
2022/08/12 07:10:25;;;;;;;14.15;6.75;;;;;;;21.60;62.92;95538.81;5027686;28;20385;-83
2022/08/12 07:12:53;;;;;;;12.10;6.85;;;;;;;21.76;62.35;95531.75;5027972;28;20053;-84
2022/08/12 07:15:23;;;;;;;12.43;7.22;;;;;;;21.96;61.75;95530.44;5028019;28;20122;-84
2022/08/12 07:18:15;;;;;;;14.45;7.78;;;;;;;22.01;62.24;95537.88;5027487;28;20225;-83
2022/08/12 07:20:42;;;;;;;11.38;7.30;;;;;;;22.08;62.88;95531.22;5028155;28;20190;-83
2022/08/12 07:23:08;;;;;;;10.27;7.13;;;;;;;22.29;62.22;95539.72;5027450;28;20029;-83
2022/08/12 07:25:33;;;;;;;12.75;7.93;;;;;;;22.45;61.42;95538.06;5028999;28;20459;-83
2022/08/12 07:28:04;;;;;;;11.00;6.10;;;;;;;22.53;59.93;95534.06;5027546;28;20045;-83
2022/08/12 07:30:31;;;;;;;10.05;6.07;;;;;;;22.65;58.66;95535.91;5027278;28;20025;-82
2022/08/12 07:33:00;;;;;;;10.10;7.43;;;;;;;22.68;59.00;95535.41;5027428;28;20025;-82
2022/08/12 07:35:26;;;;;;;9.75;7.40;;;;;;;22.82;58.86;95530.38;5027323;28;20618;-86
2022/08/12 07:37:52;;;;;;;12.05;7.45;;;;;;;22.84;58.28;95523.56;5028578;28;20421;-83
2022/08/12 07:40:17;;;;;;;13.63;6.82;;;;;;;22.91;57.98;95528.88;5026855;28;20017;-83
2022/08/12 07:42:43;;;;;;;13.73;7.28;;;;;;;22.89;57.80;95531.00;5028091;28;20104;-84
2022/08/12 07:45:08;;;;;;;14.63;7.82;;;;;;;22.90;58.21;95521.75;5027238;28;20109;-84
2022/08/12 07:47:34;;;;;;;9.65;6.60;;;;;;;22.97;58.06;95521.56;5027246;28;20614;-84
2022/08/12 07:50:01;;;;;;;8.60;7.47;;;;;;;23.06;58.16;95517.31;5027258;28;20022;-84
2022/08/12 07:52:27;;;;;;;11.50;7.53;;;;;;;23.15;56.83;95527.81;5026702;28;20040;-83
2022/08/12 07:54:52;;;;;;;12.05;7.97;;;;;;;23.14;56.91;95520.66;5027905;28;20060;-83
2022/08/12 07:57:18;;;;;;;12.23;7.03;;;;;;;23.08;56.47;95523.34;5025819;28;20134;-83
2022/08/12 07:59:43;;;;;;;11.20;7.15;;;;;;;23.07;57.21;95518.94;5027939;28;20021;-84
2022/08/12 08:02:09;;;;;;;8.52;6.50;;;;;;;23.19;56.16;95520.72;5026670;28;20115;-83
2022/08/12 08:07:19;;;;;;;11.07;6.55;;;;;;;23.19;55.19;95524.28;5026976;28;20036;-83
2022/08/12 08:09:44;;;;;;;9.32;5.80;;;;;;;23.17;55.15;95515.50;5028260;28;20029;-83
2022/08/12 08:14:57;;;;;;;12.80;6.72;;;;;;;23.40;56.07;95507.31;5034711;28;20093;-83
2022/08/12 08:17:24;;;;;;;8.77;5.50;;;;;;;23.48;54.25;95516.94;5027783;28;20029;-83
2022/08/12 08:19:51;;;;;;;8.07;5.28;;;;;;;23.49;54.30;95510.41;5032296;28;20421;-83
2022/08/12 08:22:23;;;;;;;9.32;5.45;;;;;;;23.41;53.89;95501.56;5029313;28;20022;-83
2022/08/12 08:24:56;;;;;;;10.63;4.88;;;;;;;23.33;53.59;95502.81;5028417;28;20021;-84
2022/08/12 08:27:22;;;;;;;7.00;5.05;;;;;;;23.38;54.13;95504.78;5031506;28;20044;-82
2022/08/12 08:29:48;;;;;;;8.25;4.78;;;;;;;23.48;53.91;95497.78;5030816;28;20434;-83
2022/08/12 08:32:13;;;;;;;9.88;4.95;;;;;;;23.46;53.04;95495.31;5030428;28;20021;-83
2022/08/12 08:34:39;;;;;;;7.38;4.63;;;;;;;23.54;51.24;95496.75;5031244;28;20033;-84
2022/08/12 08:37:05;;;;;;;6.32;4.53;;;;;;;23.51;51.72;95498.13;5027191;28;20036;-83
2022/08/12 08:39:31;;;;;;;6.75;4.13;;;;;;;23.79;50.85;95490.72;5027086;28;20030;-83
2022/08/12 08:44:40;;;;;;;5.35;3.55;;;;;;;24.12;49.51;95496.19;5026916;28;20043;-83
2022/08/12 08:47:07;;;;;;;5.70;3.78;;;;;;;24.25;48.31;95486.72;5027565;28;20100;-84
2022/08/12 08:49:36;;;;;;;6.40;3.70;;;;;;;24.19;48.89;95479.53;5026434;28;20025;-83
2022/08/12 08:52:03;;;;;;;6.57;4.05;;;;;;;24.16;48.18;95480.06;5026883;28;20817;-83
2022/08/12 08:54:32;;;;;;;19.10;5.55;;;;;;;24.25;48.05;95478.50;5025885;28;20109;-83
2022/08/12 08:57:01;;;;;;;8.38;3.42;;;;;;;24.32;47.73;95479.09;5026544;28;20036;-83
2022/08/12 08:59:27;;;;;;;7.95;3.80;;;;;;;24.34;47.93;95487.06;5024850;28;20025;-83
2022/08/12 09:01:52;;;;;;;20.02;5.32;;;;;;;24.40;47.77;95475.03;5025819;28;20048;-83
2022/08/12 09:04:19;;;;;;;13.48;4.35;;;;;;;24.52;47.40;95483.03;5026920;28;20026;-83
2022/08/12 09:06:46;;;;;;;9.80;3.67;;;;;;;24.60;46.96;95478.16;5025598;28;20042;-82
2022/08/12 09:09:13;;;;;;;6.22;3.58;;;;;;;24.58;45.62;95475.69;5026337;28;20025;-82
2022/08/12 09:14:22;;;;;;;8.80;3.97;;;;;;;24.63;48.70;95469.41;5025279;28;20107;-82
2022/08/12 09:16:49;;;;;;;9.75;3.85;;;;;;;24.62;45.23;95468.56;5026428;28;20037;-83
2022/08/12 09:19:16;;;;;;;7.75;4.18;;;;;;;24.64;46.34;95463.66;5025957;28;20022;-82
2022/08/12 09:21:42;;;;;;;6.20;3.00;;;;;;;24.59;45.84;95462.78;5026177;28;20467;-83
2022/08/12 09:24:07;;;;;;;5.47;3.00;;;;;;;24.79;44.31;95464.81;5025588;28;20108;-83
2022/08/12 09:26:34;;;;;;;5.57;3.40;;;;;;;24.90;44.23;95465.72;5025873;28;20048;-83
2022/08/12 09:28:59;;;;;;;5.63;3.40;;;;;;;24.99;44.55;95468.78;5025962;28;20087;-83
2022/08/12 09:31:25;;;;;;;6.00;3.08;;;;;;;24.94;43.80;95458.56;5026045;28;20025;-83
2022/08/12 09:33:50;;;;;;;6.43;3.05;;;;;;;25.09;43.51;95465.22;5026005;28;20541;-83
2022/08/12 09:36:20;;;;;;;3.50;3.10;;;;;;;25.21;41.91;95465.81;5026647;28;20024;-84
2022/08/12 09:38:45;;;;;;;3.70;2.95;;;;;;;25.33;41.71;95462.00;5026176;28;20045;-84
2022/08/12 09:41:10;;;;;;;6.07;2.70;;;;;;;25.41;40.77;95450.47;5025528;28;20381;-84
2022/08/12 09:46:21;;;;;;;3.10;2.22;;;;;;;25.67;41.86;95456.03;5026015;28;20082;-84
2022/08/12 09:48:46;;;;;;;10.63;2.95;;;;;;;25.82;40.87;95462.63;5025456;28;20029;-84
2022/08/12 09:51:12;;;;;;;30.27;5.50;;;;;;;25.91;39.20;95452.75;5025977;28;20033;-84
2022/08/12 09:53:38;;;;;;;5.90;3.15;;;;;;;25.89;39.91;95454.97;5025176;28;20073;-84
2022/08/12 09:56:04;;;;;;;3.67;2.58;;;;;;;25.91;40.50;95456.31;5025989;28;20026;-83
2022/08/12 09:58:30;;;;;;;5.05;3.00;;;;;;;25.91;41.13;95450.81;5025481;28;20130;-83
2022/08/12 10:01:00;;;;;;;3.20;2.78;;;;;;;25.89;40.20;95446.72;5026284;28;20032;-83
2022/08/12 10:03:28;;;;;;;6.90;2.97;;;;;;;25.96;41.58;95441.75;5024023;28;20025;-83
2022/08/12 10:05:57;;;;;;;3.33;2.85;;;;;;;25.99;40.75;95435.72;5025167;28;20033;-83
2022/08/12 10:08:26;;;;;;;5.15;2.67;;;;;;;26.06;39.30;95435.44;5025508;28;20366;-84
2022/08/12 10:13:42;;;;;;;4.57;2.40;;;;;;;26.21;38.83;95433.75;5025768;28;20095;-84
2022/08/12 10:16:12;;;;;;;3.42;2.63;;;;;;;26.35;39.00;95425.78;5025022;28;20026;-83
2022/08/12 10:18:42;;;;;;;3.45;2.65;;;;;;;26.23;37.60;95423.31;5025858;28;20033;-83
2022/08/12 10:21:19;;;;;;;3.85;2.80;;;;;;;26.22;38.45;95419.75;5026399;28;20480;-83
2022/08/12 10:23:46;;;;;;;6.13;2.88;;;;;;;26.18;38.83;95421.41;5028690;28;20156;-84
2022/08/12 10:31:49;;;;;;;4.90;2.60;;;;;;;26.09;38.74;95403.81;5029514;28;20056;-84
2022/08/12 10:34:15;;;;;;;2.95;2.60;;;;;;;26.09;38.39;95399.16;5028606;28;20503;-84
2022/08/12 10:36:41;;;;;;;3.55;2.90;;;;;;;26.07;40.33;95400.53;5028729;28;20083;-83
2022/08/12 10:39:08;;;;;;;4.07;2.67;;;;;;;26.17;39.57;95408.75;5028812;28;20065;-85
2022/08/12 10:44:18;;;;;;;3.65;2.65;;;;;;;26.15;39.46;95408.19;5029252;28;20052;-84
2022/08/12 10:46:46;;;;;;;8.25;3.20;;;;;;;26.42;39.34;95407.88;5028665;28;20412;-84
2022/08/12 10:49:12;;;;;;;3.10;2.60;;;;;;;26.56;38.67;95395.47;5028493;28;20037;-83
2022/08/12 10:51:38;;;;;;;3.28;2.97;;;;;;;26.72;39.08;95399.00;5028589;28;20111;-83
2022/08/12 10:54:04;;;;;;;6.15;2.90;;;;;;;26.59;37.91;95393.00;5029164;28;20036;-83
2022/08/12 10:56:35;;;;;;;3.80;3.03;;;;;;;26.39;38.11;95389.22;5032509;28;20030;-83
2022/08/12 10:59:03;;;;;;;4.05;2.70;;;;;;;26.32;39.08;95385.13;5030091;28;20444;-84
2022/08/12 11:01:30;;;;;;;3.20;2.63;;;;;;;26.27;38.28;95383.19;5029017;28;20425;-84
2022/08/12 11:03:55;;;;;;;5.32;3.00;;;;;;;26.28;39.21;95382.91;5027929;28;20111;-84
2022/08/12 11:06:21;;;;;;;3.50;2.83;;;;;;;26.31;38.48;95380.69;5028330;28;20029;-84
2022/08/12 11:08:46;;;;;;;4.13;3.03;;;;;;;26.25;38.47;95388.13;5028701;28;20053;-84
2022/08/12 11:11:16;;;;;;;3.22;2.80;;;;;;;26.32;38.80;95387.88;5028027;28;20060;-83
2022/08/12 11:13:42;;;;;;;6.13;3.30;;;;;;;26.29;39.74;95384.53;5028168;28;20080;-83
2022/08/12 11:16:07;;;;;;;3.47;2.95;;;;;;;26.44;40.08;95379.31;5027355;28;20053;-84
2022/08/12 11:18:33;;;;;;;3.38;2.92;;;;;;;26.54;38.91;95374.59;5028475;28;20048;-84
2022/08/12 11:20:59;;;;;;;3.58;2.90;;;;;;;26.56;37.51;95368.81;5027590;28;20021;-84
2022/08/12 11:23:25;;;;;;;4.57;3.00;;;;;;;26.63;39.30;95371.25;5028420;28;20040;-83
2022/08/12 11:25:50;;;;;;;3.40;3.10;;;;;;;26.52;39.83;95365.78;5027971;28;20341;-84
2022/08/12 11:28:16;;;;;;;4.88;2.90;;;;;;;26.59;37.91;95364.66;5027499;28;20368;-83
2022/08/12 11:30:42;;;;;;;4.50;2.72;;;;;;;26.98;37.51;95355.69;5027923;28;20112;-83
2022/08/12 11:33:08;;;;;;;4.18;3.20;;;;;;;27.12;37.22;95366.06;5027010;28;20112;-85
2022/08/12 11:35:35;;;;;;;3.55;2.65;;;;;;;27.20;38.30;95354.44;5028155;28;20412;-83
2022/08/12 11:38:01;;;;;;;4.32;2.90;;;;;;;27.22;36.47;95362.41;5027060;28;20021;-83
2022/08/12 11:40:27;;;;;;;3.50;2.67;;;;;;;27.41;37.03;95351.53;5027915;28;20029;-83
2022/08/12 11:43:04;;;;;;;4.68;2.75;;;;;;;27.57;37.93;95354.19;5026897;28;20029;-83
2022/08/12 11:45:32;;;;;;;3.80;3.00;;;;;;;27.72;35.98;95356.84;5026878;28;20029;-84
2022/08/12 11:48:06;;;;;;;4.03;2.88;;;;;;;27.53;35.17;95338.22;5042014;28;20040;-84
2022/08/12 11:50:31;;;;;;;5.75;3.20;;;;;;;27.53;35.15;95346.47;5024934;28;20040;-84
2022/08/12 11:52:57;;;;;;;5.30;2.80;;;;;;;27.38;35.46;95352.94;5025854;28;20025;-84
2022/08/12 11:55:26;;;;;;;3.72;2.95;;;;;;;27.49;34.76;95342.66;5025618;28;20532;-84
2022/08/12 11:57:53;;;;;;;4.38;3.00;;;;;;;27.36;35.03;95343.31;5025669;28;20021;-84
2022/08/12 12:00:19;;;;;;;3.97;3.15;;;;;;;27.26;36.46;95330.47;5025602;28;20029;-84
2022/08/12 12:02:45;;;;;;;3.70;2.78;;;;;;;27.20;35.42;95328.84;5008776;28;20051;-84
2022/08/12 12:05:11;;;;;;;4.85;3.10;;;;;;;27.12;35.44;95327.53;5024792;28;20036;-85
2022/08/12 12:07:39;;;;;;;4.50;3.20;;;;;;;27.10;35.47;95336.06;5025976;28;20044;-84
2022/08/12 12:10:04;;;;;;;4.78;3.20;;;;;;;26.91;36.05;95327.63;5026580;28;20029;-84
2022/08/12 12:12:30;;;;;;;3.72;3.15;;;;;;;26.82;36.54;95326.59;5023893;28;20033;-83
2022/08/12 12:14:56;;;;;;;4.53;3.30;;;;;;;26.93;36.34;95335.59;5026747;28;20033;-84
2022/08/12 12:17:23;;;;;;;4.22;3.40;;;;;;;26.93;36.03;95336.44;5025753;28;20025;-84
2022/08/12 12:19:48;;;;;;;5.63;3.20;;;;;;;27.03;35.70;95333.66;5027282;28;20040;-82
2022/08/12 12:22:13;;;;;;;5.03;3.25;;;;;;;26.95;35.83;95334.25;5026464;28;20028;-85
2022/08/12 12:24:45;;;;;;;3.25;2.85;;;;;;;26.98;35.94;95327.31;5024942;28;20033;-83
2022/08/12 12:27:10;;;;;;;6.88;3.22;;;;;;;27.00;36.97;95333.38;5026752;28;20056;-83
2022/08/12 12:29:36;;;;;;;3.97;2.88;;;;;;;27.03;35.98;95325.41;5026298;28;20575;-82
2022/08/12 12:32:01;;;;;;;5.10;2.80;;;;;;;27.26;36.16;95317.53;5026970;28;20376;-84
2022/08/12 12:34:27;;;;;;;5.72;2.80;;;;;;;27.32;35.75;95311.97;5025952;28;20022;-84
2022/08/12 12:36:52;;;;;;;4.57;2.60;;;;;;;27.22;35.67;95316.47;5027056;28;20535;-83
2022/08/12 12:39:18;;;;;;;9.05;2.72;;;;;;;27.13;35.59;95312.69;5026171;28;20512;-83
2022/08/12 12:41:43;;;;;;;4.32;2.75;;;;;;;26.92;35.96;95312.78;5026264;28;20397;-83
2022/08/12 12:44:09;;;;;;;3.58;2.80;;;;;;;26.83;36.09;95308.97;5026022;28;20044;-83
2022/08/12 12:46:34;;;;;;;4.50;2.65;;;;;;;26.74;35.86;95309.59;5025762;28;20034;-82
2022/08/12 12:48:59;;;;;;;3.38;2.72;;;;;;;26.66;36.93;95307.44;5026568;28;20059;-82
2022/08/12 12:51:25;;;;;;;6.57;2.95;;;;;;;26.65;37.00;95309.38;5025361;28;20026;-83
2022/08/12 12:53:50;;;;;;;4.30;2.80;;;;;;;26.35;36.38;95315.81;5026818;28;20489;-83
2022/08/12 12:56:20;;;;;;;6.70;3.00;;;;;;;26.41;35.99;95295.47;5025467;28;20033;-83
2022/08/12 12:58:48;;;;;;;4.45;2.70;;;;;;;26.40;37.13;95293.81;5026260;28;20025;-83
2022/08/12 13:01:15;;;;;;;3.22;2.50;;;;;;;26.42;36.51;95291.63;5026142;28;20026;-83
2022/08/12 13:03:41;;;;;;;4.15;2.83;;;;;;;26.36;36.55;95293.56;5025731;28;20476;-83
2022/08/12 13:06:07;;;;;;;5.25;2.67;;;;;;;26.33;36.87;95287.78;5026641;28;20025;-84
2022/08/12 13:08:32;;;;;;;5.10;2.83;;;;;;;26.31;37.14;95293.53;5025439;28;20107;-84
2022/08/12 13:11:00;;;;;;;4.20;2.88;;;;;;;26.36;37.28;95281.75;5026944;28;20463;-82
2022/08/12 13:13:26;;;;;;;3.83;2.70;;;;;;;26.51;36.51;95292.66;5025169;28;20057;-83
2022/08/12 13:15:52;;;;;;;4.55;2.75;;;;;;;26.59;36.11;95284.91;5026296;28;20087;-83
2022/08/12 13:18:18;;;;;;;3.50;2.78;;;;;;;26.90;36.51;95282.81;5025776;28;20025;-83